Aviation Digital Data Service (ADDS)

Output produced by TAFs form (2035 UTC 16 December 2017)
found at http://www.aviationweather.gov/adds/tafs/
 
KBJC 161945Z 02005KT 30SM BKN120 09/M13 A2981
KBJC 161743Z 1618/1718 06008KT P6SM BKN140 
     FM170200 07006KT P6SM FEW080 BKN140 
     FM170600 08007KT P6SM SCT006 BKN010 
     FM170900 07004KT 4SM BR BKN004 OVC008 
     PROB30 1709/1713 1/2SM -FZDZSN FG VV003 
     FM171600 05004KT P6SM SCT008 OVC014 
     TEMPO 1716/1718 BKN008